Time;durP1;ratioP1;P1;durP2;ratioP2;P2;SDS_P1;SDS_P2;PMS_P1;PMS_P2;Temp;Humidity;BMP_temperature;BMP_pressure;BME280_temperature;BME280_humidity;BME280_pressure;Samples;Min_cycle;Max_cycle;Signal;HPM_P1;HPM_P2
2021/04/07 00:00:14;;;;;;;16.15;6.63;;;3.10;89.00;;;3.95;68.94;100248.13;4997788;28;20045;-88
2021/04/07 00:02:41;;;;;;;16.38;5.93;;;3.20;89.30;;;3.90;69.44;100253.97;4997731;28;20049;-88
2021/04/07 00:05:13;;;;;;;15.38;5.95;;;3.20;88.90;;;3.97;68.97;100261.44;5015744;28;20117;-88
2021/04/07 00:07:43;;;;;;;16.90;5.70;;;3.20;89.00;;;3.95;68.85;100252.66;4997523;28;20052;-88
2021/04/07 00:10:13;;;;;;;15.23;5.40;;;3.20;88.90;;;3.92;69.10;100256.50;4997648;28;20042;-88
2021/04/07 00:12:40;;;;;;;17.50;5.07;;;3.20;89.00;;;3.83;68.66;100260.09;5013768;28;20398;-88
2021/04/07 00:15:11;;;;;;;13.07;5.00;;;3.20;88.90;;;3.87;69.17;100256.94;4997947;28;20057;-88
2021/04/07 00:17:38;;;;;;;21.35;7.22;;;3.20;88.70;;;3.87;69.27;100251.56;5015359;28;20046;-88
2021/04/07 00:20:10;;;;;;;11.82;5.20;;;3.10;88.90;;;3.89;68.69;100254.94;5015277;28;20042;-88
2021/04/07 00:22:36;;;;;;;11.27;4.93;;;3.10;88.80;;;3.87;68.71;100256.94;4997346;28;20045;-88
2021/04/07 00:25:06;;;;;;;18.70;4.68;;;3.00;88.90;;;3.89;68.97;100252.25;4997319;28;20041;-88
2021/04/07 00:27:35;;;;;;;10.93;4.90;;;3.00;89.10;;;3.84;68.73;100246.47;4997055;28;20077;-88
2021/04/07 00:30:02;;;;;;;17.00;5.25;;;3.00;88.80;;;3.85;68.46;100242.78;4997242;28;20045;-88
2021/04/07 00:32:29;;;;;;;16.25;5.47;;;2.90;88.90;;;3.81;68.44;100245.91;4997134;28;20049;-88
2021/04/07 00:34:56;;;;;;;16.33;5.35;;;2.90;89.00;;;3.80;68.66;100245.06;5014300;28;20037;-88
2021/04/07 00:37:22;;;;;;;14.65;5.40;;;2.90;88.90;;;3.77;68.54;100244.50;5014945;28;20064;-88
2021/04/07 00:39:49;;;;;;;12.07;5.05;;;2.80;88.90;;;3.77;68.61;100244.50;5014788;28;20509;-88
2021/04/07 00:42:17;;;;;;;8.80;4.32;;;2.80;88.90;;;3.77;68.60;100248.06;4996960;28;20033;-88
2021/04/07 00:44:45;;;;;;;10.77;4.38;;;2.80;89.30;;;3.77;68.20;100250.75;4996588;28;20536;-88
2021/04/07 00:47:12;;;;;;;12.65;4.80;;;2.70;89.70;;;3.75;68.92;100254.56;5013480;28;20045;-88
2021/04/07 00:49:39;;;;;;;15.18;4.57;;;2.80;90.00;;;3.80;68.54;100253.13;4996498;28;20042;-88
2021/04/07 00:52:06;;;;;;;11.27;4.32;;;2.80;90.00;;;3.80;69.02;100249.59;4996655;28;20100;-88
2021/04/07 00:54:34;;;;;;;14.07;4.63;;;2.90;90.00;;;3.70;69.17;100252.34;4996570;28;20042;-88
2021/04/07 00:57:01;;;;;;;14.10;5.13;;;2.90;89.80;;;3.70;69.48;100252.34;5014271;28;20403;-88
2021/04/07 00:59:29;;;;;;;13.15;5.10;;;3.00;89.60;;;3.71;69.95;100259.41;4997177;28;20617;-88
2021/04/07 01:01:56;;;;;;;11.35;4.95;;;3.10;89.90;;;3.75;69.48;100263.53;4996364;28;20053;-88
2021/04/07 01:04:24;;;;;;;11.57;4.25;;;3.00;89.70;;;3.75;69.41;100260.84;4996446;28;20072;-88
2021/04/07 01:06:52;;;;;;;10.77;5.13;;;3.00;89.60;;;3.73;69.39;100265.47;4996648;28;20108;-88
2021/04/07 01:09:19;;;;;;;12.63;4.68;;;3.00;89.60;;;3.77;69.30;100261.53;5012953;28;20093;-88
2021/04/07 01:11:46;;;;;;;15.40;4.88;;;3.00;89.60;;;3.71;69.09;100262.97;4996842;28;20041;-88
2021/04/07 01:14:13;;;;;;;14.38;5.80;;;3.00;89.30;;;3.75;69.08;100262.66;5014093;28;20046;-88
2021/04/07 01:16:41;;;;;;;11.90;4.50;;;3.00;89.60;;;3.71;69.57;100267.47;5014229;28;20053;-88
2021/04/07 01:19:09;;;;;;;12.75;5.28;;;3.00;89.30;;;3.72;69.69;100261.94;4996281;28;20077;-88
2021/04/07 01:21:37;;;;;;;10.02;5.45;;;3.00;89.70;;;3.73;69.45;100268.19;5013507;28;20042;-88
2021/04/07 01:24:06;;;;;;;14.60;4.72;;;3.00;89.80;;;3.74;69.70;100269.88;5013515;28;20041;-88
2021/04/07 01:26:33;;;;;;;12.35;5.00;;;2.90;89.70;;;3.71;69.17;100270.16;5014172;28;20322;-88
2021/04/07 01:29:00;;;;;;;14.68;5.28;;;2.90;89.60;;;3.74;69.07;100277.13;4996108;28;20584;-88
2021/04/07 01:31:27;;;;;;;14.40;5.78;;;2.90;89.50;;;3.65;69.82;100273.44;5013828;28;20038;-88
2021/04/07 01:33:54;;;;;;;14.07;6.20;;;3.00;89.50;;;3.63;69.22;100278.13;4996175;28;20080;-88
2021/04/07 01:36:23;;;;;;;13.00;6.03;;;3.00;89.70;;;3.67;69.64;100266.06;4996307;28;20096;-88
2021/04/07 01:38:50;;;;;;;17.52;6.72;;;3.20;89.50;;;3.70;69.64;100281.94;5013880;28;20445;-88
2021/04/07 01:41:19;;;;;;;13.93;5.93;;;3.00;89.30;;;3.71;69.04;100268.34;4996384;28;20414;-88
2021/04/07 01:43:48;;;;;;;13.90;5.95;;;3.10;89.50;;;3.68;69.29;100270.47;5013393;28;20045;-88
2021/04/07 01:46:16;;;;;;;14.35;5.43;;;3.20;89.70;;;3.73;69.89;100273.56;5013880;28;20046;-87
2021/04/07 01:48:45;;;;;;;15.93;5.13;;;3.00;89.50;;;3.75;69.64;100268.91;4996129;28;20495;-88
2021/04/07 01:51:11;;;;;;;21.63;6.32;;;3.00;89.30;;;3.69;69.27;100264.09;4996214;28;20088;-88
2021/04/07 01:53:38;;;;;;;12.18;4.55;;;3.00;89.50;;;3.72;69.57;100272.72;5013233;28;20554;-88
2021/04/07 01:56:06;;;;;;;11.00;5.20;;;3.00;89.50;;;3.64;69.23;100274.47;5013360;28;20054;-88
2021/04/07 01:58:33;;;;;;;11.20;4.57;;;3.00;89.50;;;3.66;69.52;100272.47;5013413;28;20046;-88
2021/04/07 02:01:00;;;;;;;15.65;5.30;;;3.10;89.50;;;3.66;69.98;100272.47;4996002;28;20710;-89
2021/04/07 02:03:27;;;;;;;14.10;5.95;;;3.10;89.30;;;3.69;69.74;100270.34;5012831;28;20410;-88
2021/04/07 02:05:54;;;;;;;15.50;7.25;;;3.10;89.30;;;3.71;69.04;100271.03;4995858;28;20065;-88
2021/04/07 02:08:21;;;;;;;14.93;7.60;;;3.10;89.00;;;3.72;69.79;100278.09;5013575;28;20077;-88
2021/04/07 02:10:47;;;;;;;18.48;8.15;;;3.10;89.20;;;3.69;69.70;100274.84;5013352;28;20757;-89
2021/04/07 02:13:14;;;;;;;15.82;7.32;;;3.10;89.00;;;3.73;69.39;100278.94;4995391;28;20046;-88
2021/04/07 02:15:42;;;;;;;16.45;7.40;;;3.10;89.10;;;3.69;69.84;100269.47;4995780;28;20054;-89
2021/04/07 02:18:09;;;;;;;12.18;6.45;;;3.10;89.20;;;3.73;69.41;100276.25;4995814;28;20061;-88
2021/04/07 02:20:36;;;;;;;12.75;7.15;;;3.10;88.90;;;3.74;69.46;100272.56;5011846;28;20084;-89
2021/04/07 02:23:03;;;;;;;16.98;7.63;;;3.10;89.30;;;3.74;69.48;100264.50;5013292;28;20041;-88
2021/04/07 02:25:30;;;;;;;12.55;6.78;;;3.10;89.40;;;3.75;69.65;100268.91;4995640;28;20461;-88
2021/04/07 02:27:57;;;;;;;16.30;6.93;;;3.00;89.40;;;3.78;69.58;100268.59;5013229;28;20038;-88
2021/04/07 02:30:24;;;;;;;18.20;6.57;;;3.00;89.30;;;3.76;69.29;100264.34;5013006;28;20045;-89
2021/04/07 02:32:52;;;;;;;19.33;7.13;;;3.00;89.20;;;3.76;69.64;100265.19;4995090;28;20053;-89
2021/04/07 02:35:19;;;;;;;15.00;7.03;;;3.10;89.40;;;3.79;69.70;100259.53;5013028;28;20517;-89
2021/04/07 02:37:45;;;;;;;16.23;7.78;;;3.10;89.50;;;3.76;68.93;100265.19;5012993;28;20057;-88
2021/04/07 02:40:13;;;;;;;15.25;7.50;;;3.10;89.20;;;3.75;69.34;100258.13;4995174;28;20081;-88
2021/04/07 02:42:40;;;;;;;15.85;7.47;;;3.10;89.20;;;3.74;69.19;100258.28;5012944;28;20038;-89
2021/04/07 02:45:08;;;;;;;15.75;7.95;;;3.00;89.00;;;3.75;69.27;100263.53;5013001;28;20076;-89
2021/04/07 02:47:35;;;;;;;19.92;7.28;;;3.00;89.70;;;3.72;69.54;100259.25;5013250;28;20048;-88
2021/04/07 02:50:04;;;;;;;13.63;7.80;;;3.00;89.50;;;3.69;69.73;100251.50;4995188;28;20042;-88
2021/04/07 02:52:30;;;;;;;15.57;7.47;;;3.00;89.10;;;3.74;69.43;100258.28;4994888;28;20077;-89
2021/04/07 02:54:57;;;;;;;17.48;7.75;;;3.00;89.50;;;3.70;68.84;100245.09;4994432;28;20066;-88
2021/04/07 02:57:24;;;;;;;19.98;7.65;;;3.00;89.10;;;3.62;69.13;100252.22;4994581;28;20415;-88
2021/04/07 02:59:51;;;;;;;15.60;8.60;;;3.00;88.80;;;3.59;69.41;100250.66;4994774;28;20521;-89
2021/04/07 03:02:18;;;;;;;16.48;8.10;;;3.10;89.00;;;3.64;69.31;100255.63;5012417;28;20042;-88
2021/04/07 03:04:44;;;;;;;19.92;8.80;;;3.20;89.00;;;3.66;69.53;100259.00;4994513;28;20502;-88
2021/04/07 03:07:12;;;;;;;20.65;8.05;;;3.00;89.10;;;3.70;69.51;100255.88;5012264;28;20053;-89
2021/04/07 03:09:39;;;;;;;17.35;8.25;;;3.00;89.40;;;3.70;69.20;100265.78;4994782;28;20069;-88
2021/04/07 03:12:07;;;;;;;16.85;8.60;;;3.00;89.60;;;3.66;69.77;100264.41;5012472;28;20046;-88
2021/04/07 03:14:34;;;;;;;19.52;8.45;;;3.00;89.40;;;3.66;69.47;100264.41;5015752;28;20041;-89
2021/04/07 03:17:01;;;;;;;18.13;9.60;;;3.00;89.80;;;3.63;70.16;100259.28;4998767;28;20084;-88
2021/04/07 03:19:28;;;;;;;14.18;9.00;;;3.10;89.90;;;3.67;70.33;100260.69;5016535;28;20038;-88
2021/04/07 03:21:55;;;;;;;20.50;9.43;;;3.10;89.80;;;3.65;70.33;100251.91;5016605;28;20041;-88
2021/04/07 03:24:22;;;;;;;18.13;8.70;;;3.10;89.70;;;3.62;70.16;100253.06;5016117;28;20038;-88
2021/04/07 03:26:49;;;;;;;20.17;8.25;;;3.20;89.30;;;3.67;70.00;100264.22;4998910;28;20491;-88
2021/04/07 03:29:16;;;;;;;13.88;7.07;;;3.20;89.20;;;3.67;70.55;100260.69;5016160;28;20096;-88
2021/04/07 03:31:43;;;;;;;15.63;7.60;;;3.20;89.40;;;3.72;70.41;100245.81;4998643;28;20050;-88
2021/04/07 03:34:10;;;;;;;17.98;7.90;;;3.10;89.40;;;3.71;70.50;100251.31;5015479;28;20038;-88
2021/04/07 03:36:37;;;;;;;13.68;7.53;;;3.20;89.60;;;3.76;69.83;100254.44;5016015;28;20045;-89
2021/04/07 03:39:04;;;;;;;13.82;7.25;;;3.30;89.60;;;3.81;70.14;100251.28;4998734;28;20057;-89
2021/04/07 03:41:32;;;;;;;18.17;7.30;;;3.20;89.20;;;3.83;69.75;100254.72;5015988;28;20069;-88
2021/04/07 03:44:00;;;;;;;17.67;7.35;;;3.10;89.40;;;3.84;69.88;100254.53;5015535;28;20041;-88
2021/04/07 03:46:27;;;;;;;13.15;7.45;;;3.10;89.60;;;3.79;69.67;100240.69;5015770;28;20045;-88
2021/04/07 03:48:53;;;;;;;11.85;7.15;;;3.30;89.50;;;3.69;70.18;100253.31;5015907;28;20049;-88
2021/04/07 03:51:20;;;;;;;11.85;6.53;;;3.20;89.50;;;3.71;70.00;100251.31;4997716;28;20057;-88
2021/04/07 03:53:47;;;;;;;13.18;6.68;;;3.20;89.60;;;3.73;70.07;100260.09;5015673;28;20493;-88
2021/04/07 03:56:14;;;;;;;15.23;7.10;;;3.20;89.50;;;3.75;69.91;100252.75;5015753;28;20053;-88
2021/04/07 03:58:42;;;;;;;14.50;6.70;;;3.20;89.60;;;3.78;70.29;100251.59;5015894;28;20033;-88
2021/04/07 04:01:10;;;;;;;14.52;6.55;;;3.20;89.40;;;3.77;70.47;100245.38;5016069;28;20049;-88
2021/04/07 04:03:37;;;;;;;16.60;8.25;;;3.20;89.80;;;3.76;70.12;100251.75;4997701;28;20148;-88
2021/04/07 04:06:04;;;;;;;17.67;9.68;;;3.20;89.70;;;3.78;69.84;100249.75;5015412;28;20101;-88
2021/04/07 04:08:31;;;;;;;21.10;11.57;;;3.20;89.60;;;3.64;70.56;100261.84;5015336;28;20037;-88
2021/04/07 04:10:58;;;;;;;21.77;12.27;;;3.30;89.80;;;3.71;70.77;100254.88;4997756;28;20054;-88
2021/04/07 04:13:25;;;;;;;24.98;13.48;;;3.20;89.80;;;3.75;70.88;100257.28;5015431;28;20046;-88
2021/04/07 04:15:52;;;;;;;27.33;14.35;;;3.20;89.60;;;3.77;71.18;100264.22;5015586;28;20604;-88
2021/04/07 04:18:19;;;;;;;24.48;15.10;;;3.30;90.00;;;3.71;71.36;100259.41;5015003;28;20084;-88
2021/04/07 04:20:46;;;;;;;24.02;14.75;;;3.20;89.90;;;3.71;70.94;100262.09;5015412;28;20049;-88
2021/04/07 04:23:13;;;;;;;25.65;15.57;;;3.20;90.10;;;3.74;70.77;100261.81;5015086;28;20548;-88
2021/04/07 04:25:40;;;;;;;27.85;16.25;;;3.20;90.20;;;3.77;70.89;100266.03;5014413;28;20498;-88
2021/04/07 04:28:06;;;;;;;26.70;16.27;;;3.20;90.30;;;3.77;70.61;100266.91;4996974;28;20037;-88
2021/04/07 04:30:33;;;;;;;29.15;16.48;;;3.20;90.50;;;3.81;70.97;100264.75;5015034;28;20124;-88
2021/04/07 04:33:01;;;;;;;29.27;17.20;;;3.20;90.50;;;3.69;71.54;100269.47;4997181;28;20050;-88
2021/04/07 04:35:28;;;;;;;29.55;18.50;;;3.20;90.20;;;3.71;71.26;100256.72;5015345;28;20088;-88
2021/04/07 04:37:55;;;;;;;28.05;17.38;;;3.20;90.40;;;3.75;70.89;100263.53;4997538;28;20050;-88
2021/04/07 04:40:22;;;;;;;25.83;15.50;;;3.20;90.10;;;3.78;70.66;100249.75;5014869;28;20034;-88
2021/04/07 04:42:49;;;;;;;26.35;15.07;;;3.20;90.20;;;3.82;70.49;100253.84;5014475;28;20049;-88
2021/04/07 04:45:16;;;;;;;22.75;15.18;;;3.20;90.20;;;3.80;70.79;100257.69;5014499;28;20517;-88
2021/04/07 04:47:43;;;;;;;28.10;16.25;;;3.20;90.40;;;3.79;70.79;100259.53;5014804;28;20041;-88
2021/04/07 04:50:13;;;;;;;21.73;14.48;;;3.20;90.70;;;3.79;71.06;100254.16;5014748;28;20049;-88
2021/04/07 04:52:40;;;;;;;23.52;14.25;;;3.20;90.40;;;3.77;71.22;100249.88;5014438;28;20050;-87
2021/04/07 04:55:10;;;;;;;21.58;14.25;;;3.20;90.40;;;3.77;70.94;100255.28;5014598;28;20096;-88
2021/04/07 04:57:37;;;;;;;21.38;13.57;;;3.30;90.80;;;3.79;71.37;100253.28;5014557;28;20041;-88
2021/04/07 05:00:06;;;;;;;22.27;13.48;;;3.20;90.70;;;3.83;71.03;100257.41;4996412;28;20092;-88
2021/04/07 05:02:33;;;;;;;21.23;13.30;;;3.20;91.10;;;3.79;71.74;100262.22;5014241;28;20076;-88
2021/04/07 05:05:00;;;;;;;24.27;14.95;;;3.20;91.30;;;3.79;71.45;100259.53;5014359;28;20065;-88
2021/04/07 05:07:29;;;;;;;25.58;15.13;;;3.20;91.30;;;3.79;71.64;100264.91;5014623;28;20045;-88
2021/04/07 05:09:56;;;;;;;24.90;14.82;;;3.20;91.40;;;3.81;71.59;100273.69;4996877;28;20042;-88
2021/04/07 05:12:23;;;;;;;21.25;13.55;;;3.20;91.60;;;3.82;71.22;100267.28;4997083;28;20061;-88
2021/04/07 05:15:05;;;;;;;21.90;15.00;;;3.30;91.80;;;3.77;71.56;100272.28;5017106;28;20042;-94
2021/04/07 05:17:41;;;;;;;22.45;14.57;;;3.20;91.60;;;3.83;71.73;100270.84;5014362;28;20045;-93
2021/04/07 05:20:10;;;;;;;27.40;15.30;;;3.10;92.00;;;3.82;71.84;100270.00;5020884;28;20042;-85
2021/04/07 05:22:37;;;;;;;23.42;15.70;;;3.10;92.30;;;3.83;71.94;100273.56;5014539;28;20038;-85
2021/04/07 05:25:05;;;;;;;25.30;15.65;;;3.10;92.10;;;3.79;71.88;100264.91;5013546;28;20525;-89
2021/04/07 05:27:32;;;;;;;27.02;16.77;;;3.10;92.10;;;3.76;71.72;100265.19;5012428;28;20042;-89
2021/04/07 05:29:59;;;;;;;26.92;16.88;;;3.10;92.10;;;3.78;71.72;100268.59;4995358;28;20053;-89
2021/04/07 05:32:26;;;;;;;26.27;16.02;;;3.10;92.10;;;3.78;71.45;100263.22;4995905;28;20521;-88
2021/04/07 05:34:53;;;;;;;26.75;15.57;;;3.10;92.20;;;3.78;71.77;100260.53;5013169;28;20045;-89
2021/04/07 05:37:20;;;;;;;25.15;15.75;;;3.10;92.00;;;3.79;71.64;100259.53;5012378;28;20038;-89
2021/04/07 05:39:47;;;;;;;23.58;14.02;;;3.20;92.10;;;3.79;71.81;100264.91;5013345;28;20033;-89
2021/04/07 05:42:14;;;;;;;20.98;12.68;;;3.10;92.10;;;3.75;72.15;100251.88;4995692;28;20041;-88
2021/04/07 05:44:41;;;;;;;18.42;11.60;;;3.10;92.00;;;3.70;72.11;100252.34;4995247;28;20045;-88
2021/04/07 05:47:08;;;;;;;18.42;9.95;;;3.20;91.90;;;3.68;71.95;100257.03;4995770;28;20112;-88
2021/04/07 05:49:38;;;;;;;17.38;10.10;;;3.20;91.90;;;3.69;72.41;100256.00;4995562;28;20049;-88
2021/04/07 05:52:05;;;;;;;14.85;9.75;;;3.20;91.90;;;3.73;72.05;100252.03;5013466;28;20053;-87
2021/04/07 05:54:32;;;;;;;18.70;9.60;;;3.20;92.00;;;3.70;72.42;100246.97;5012907;28;20037;-88
2021/04/07 05:56:59;;;;;;;17.10;9.82;;;3.10;91.80;;;3.74;72.44;100247.50;5012724;28;20379;-88
2021/04/07 05:59:26;;;;;;;15.15;9.35;;;3.20;91.90;;;3.74;72.05;100248.34;5012987;28;20042;-89
2021/04/07 06:01:53;;;;;;;14.48;8.65;;;3.20;92.20;;;3.70;71.96;100249.66;4994413;28;20058;-87
2021/04/07 06:04:20;;;;;;;14.90;9.82;;;3.20;92.10;;;3.73;71.99;100243.94;4998914;28;20146;-88
2021/04/07 06:06:47;;;;;;;16.85;10.20;;;3.30;91.90;;;3.74;71.89;100248.34;4998457;28;20050;-88
2021/04/07 06:09:13;;;;;;;16.02;10.70;;;3.20;91.90;;;3.74;72.46;100250.22;5003274;28;20125;-88
2021/04/07 06:11:40;;;;;;;18.05;10.65;;;3.20;92.00;;;3.77;72.19;100245.38;5009078;28;20053;-87
2021/04/07 06:14:08;;;;;;;15.90;10.05;;;3.20;92.10;;;3.79;72.41;100243.38;5012359;28;20046;-88
2021/04/07 06:16:35;;;;;;;17.15;11.13;;;3.20;92.00;;;3.79;72.19;100237.13;4994914;28;20050;-88
2021/04/07 06:19:02;;;;;;;19.70;12.32;;;3.20;91.90;;;3.80;71.97;100237.00;4987878;28;20042;-86
2021/04/07 06:21:28;;;;;;;17.50;11.95;;;3.20;92.00;;;3.74;72.33;100229.50;5003446;28;20072;-86
2021/04/07 06:23:55;;;;;;;19.52;12.18;;;3.30;92.20;;;3.73;72.74;100238.56;5011834;28;20041;-86
2021/04/07 06:26:22;;;;;;;17.95;11.60;;;3.30;92.10;;;3.76;72.54;100240.13;5013070;28;20061;-86
2021/04/07 06:28:49;;;;;;;24.67;14.00;;;3.30;92.00;;;3.78;72.91;100233.59;4992638;28;20054;-86
2021/04/07 06:31:17;;;;;;;19.65;11.77;;;3.40;92.20;;;3.75;72.50;100231.22;4994148;28;20041;-86
2021/04/07 06:33:44;;;;;;;16.85;11.00;;;3.30;92.10;;;3.63;72.97;100229.69;5013155;28;20054;-85
2021/04/07 06:36:11;;;;;;;15.02;9.88;;;3.40;92.00;;;3.67;73.44;100233.78;5012673;28;20050;-85
2021/04/07 06:38:39;;;;;;;16.27;9.95;;;3.40;92.00;;;3.68;73.26;100230.13;4994916;28;20049;-85
2021/04/07 06:41:07;;;;;;;21.60;11.52;;;3.30;91.90;;;3.70;72.57;100225.44;5012340;28;20042;-84
2021/04/07 06:43:34;;;;;;;19.23;11.73;;;3.30;91.90;;;3.71;73.16;100230.66;5013131;28;20054;-84
2021/04/07 06:46:03;;;;;;;16.90;10.15;;;3.30;92.20;;;3.74;72.76;100221.44;5007927;28;20049;-85
2021/04/07 06:48:31;;;;;;;15.32;8.45;;;3.40;92.20;;;3.63;72.86;100227.00;4992708;28;20050;-85
2021/04/07 06:50:58;;;;;;;12.07;8.93;;;3.30;91.90;;;3.58;73.34;100226.59;5008800;28;20045;-85
2021/04/07 06:53:27;;;;;;;14.32;8.88;;;3.50;91.80;;;3.62;73.29;100222.63;5010061;28;20050;-85
2021/04/07 06:55:55;;;;;;;13.98;9.73;;;3.50;91.80;;;3.65;73.08;100227.69;5012811;28;20057;-85
2021/04/07 06:58:22;;;;;;;14.85;9.98;;;3.50;91.50;;;3.63;73.40;100227.00;5012397;28;20056;-85
2021/04/07 07:00:50;;;;;;;13.90;9.40;;;3.50;91.50;;;3.67;73.60;100225.72;4995344;28;20054;-86
2021/04/07 07:03:19;;;;;;;14.52;9.90;;;3.50;91.40;;;3.70;72.88;100223.56;4994448;28;20045;-85
2021/04/07 07:05:49;;;;;;;14.00;9.32;;;3.50;91.10;;;3.71;73.15;100219.91;5011381;28;20061;-85
2021/04/07 07:08:18;;;;;;;14.38;10.20;;;3.50;91.30;;;3.74;72.79;100218.75;4993736;28;20388;-85
2021/04/07 07:10:48;;;;;;;15.13;9.07;;;3.50;91.20;;;3.71;73.32;100219.03;4985834;28;20724;-85
2021/04/07 07:13:18;;;;;;;15.02;9.48;;;3.50;91.30;;;3.68;73.22;100227.41;4989692;28;20050;-85
2021/04/07 07:15:45;;;;;;;14.93;10.27;;;3.60;91.20;;;3.66;73.83;100230.25;4993476;28;20049;-85
2021/04/07 07:18:21;;;;;;;14.52;9.50;;;3.60;91.00;;;3.65;73.37;100225.00;5007911;28;20042;-85
2021/04/07 07:20:48;;;;;;;16.27;9.15;;;3.70;91.10;;;3.74;73.01;100229.50;5013080;28;20692;-85
2021/04/07 07:23:26;;;;;;;18.40;9.82;;;3.60;91.00;;;3.73;73.58;100227.81;4994422;28;20129;-85
2021/04/07 07:25:59;;;;;;;13.30;9.75;;;3.60;91.00;;;3.46;74.32;100226.75;4995191;28;20414;-85
2021/04/07 07:28:27;;;;;;;12.57;9.00;;;3.80;91.10;;;3.53;74.62;100225.19;4994647;28;20078;-85
2021/04/07 07:30:54;;;;;;;15.18;8.65;;;3.70;91.00;;;3.67;73.75;100244.53;5012659;28;20042;-85
2021/04/07 07:33:25;;;;;;;14.90;9.20;;;3.70;91.00;;;3.56;74.25;100237.53;4994031;28;20042;-85
2021/04/07 07:36:08;;;;;;;15.93;8.80;;;3.70;90.50;;;3.67;73.47;100237.31;5012309;28;20145;-84
2021/04/07 07:38:35;;;;;;;11.65;8.20;;;3.70;90.60;;;3.70;73.75;100230.81;5012657;28;20053;-87
2021/04/07 07:41:06;;;;;;;11.35;8.00;;;3.70;90.60;;;3.69;73.41;100239.88;4994117;28;20057;-87
2021/04/07 07:43:34;;;;;;;10.82;8.55;;;3.70;90.60;;;3.70;73.55;100239.72;4993367;28;20050;-88
2021/04/07 07:46:10;;;;;;;11.57;8.15;;;3.80;90.30;;;3.60;74.15;100244.31;4990522;28;20521;-88
2021/04/07 07:48:39;;;;;;;12.40;8.65;;;3.80;90.30;;;3.56;74.21;100239.34;4993134;28;20096;-88
2021/04/07 07:51:16;;;;;;;12.05;8.30;;;3.80;90.00;;;3.43;74.79;100243.22;5010684;28;20563;-88
2021/04/07 07:53:45;;;;;;;12.82;8.32;;;3.80;90.00;;;3.66;74.15;100250.94;4993278;28;20132;-88
2021/04/07 07:56:13;;;;;;;11.80;7.85;;;3.70;90.40;;;3.59;74.38;100260.59;4993515;28;20498;-88
2021/04/07 07:58:46;;;;;;;11.20;8.45;;;3.80;90.40;;;3.70;73.81;100255.03;4993463;28;20049;-88
2021/04/07 08:01:15;;;;;;;13.98;8.35;;;3.70;90.60;;;3.72;73.56;100259.25;5014060;28;20172;-87
2021/04/07 08:03:42;;;;;;;11.20;8.02;;;3.70;90.50;;;3.62;74.02;100258.44;5011030;28;20077;-88
2021/04/07 08:06:10;;;;;;;9.55;7.60;;;3.70;90.40;;;3.78;73.58;100257.00;4996278;28;20399;-88
2021/04/07 08:08:38;;;;;;;10.90;7.78;;;3.70;90.60;;;3.77;73.40;100272.28;5014543;28;20092;-88
2021/04/07 08:11:07;;;;;;;10.75;7.63;;;3.70;90.40;;;3.71;73.46;100279.13;4997390;28;20104;-88
2021/04/07 08:13:37;;;;;;;12.07;8.07;;;3.80;90.10;;;3.79;73.49;100275.69;4996254;28;20041;-87
2021/04/07 08:16:06;;;;;;;12.45;7.50;;;3.80;90.00;;;3.82;73.38;100280.75;4996625;28;20061;-87
2021/04/07 08:18:33;;;;;;;10.32;8.10;;;3.80;90.40;;;3.83;73.59;100287.00;4996836;28;20046;-87
2021/04/07 08:21:03;;;;;;;10.70;7.18;;;3.80;90.20;;;3.89;73.14;100297.19;4996125;28;20046;-87
2021/04/07 08:23:34;;;;;;;10.13;7.25;;;3.90;90.40;;;3.91;73.53;100298.72;5013609;28;20115;-88
2021/04/07 08:26:03;;;;;;;10.00;7.63;;;4.00;90.40;;;3.95;73.67;100298.44;4995240;28;20046;-88
2021/04/07 08:28:31;;;;;;;10.73;7.63;;;3.90;90.50;;;3.95;73.93;100301.97;5013776;28;20042;-88
2021/04/07 08:30:58;;;;;;;9.45;7.55;;;4.00;90.30;;;3.91;73.30;100301.41;4977247;28;20057;-88
2021/04/07 08:33:32;;;;;;;11.38;8.13;;;4.00;90.40;;;3.82;73.88;100299.59;4976305;28;20141;-88
2021/04/07 08:36:00;;;;;;;12.10;8.43;;;4.10;90.40;;;3.77;73.96;100292.97;5013962;28;20046;-88
2021/04/07 08:38:31;;;;;;;12.80;8.93;;;4.10;90.20;;;3.85;74.38;100295.78;4996297;28;20050;-88
2021/04/07 08:41:10;;;;;;;12.27;8.43;;;4.10;90.00;;;3.87;74.41;100304.56;4996188;28;20418;-88
2021/04/07 08:43:39;;;;;;;12.35;8.98;;;4.00;90.30;;;3.90;74.26;100313.19;4996298;28;20050;-88
2021/04/07 08:46:14;;;;;;;11.98;8.90;;;4.20;90.40;;;3.90;74.14;100320.41;4996565;28;20054;-88
2021/04/07 08:48:41;;;;;;;13.95;9.10;;;4.00;90.40;;;3.94;74.03;100311.06;4996702;28;20057;-88
2021/04/07 08:51:10;;;;;;;12.88;9.10;;;3.90;90.50;;;3.95;73.53;100315.44;4996540;28;20406;-88
2021/04/07 08:53:43;;;;;;;12.18;9.13;;;3.90;91.00;;;4.02;73.79;100324.63;4995996;28;20038;-88
2021/04/07 08:56:13;;;;;;;15.43;10.02;;;3.90;91.20;;;4.01;73.70;100327.47;5013613;28;20479;-88
2021/04/07 08:58:50;;;;;;;12.18;9.50;;;3.90;91.20;;;3.95;74.28;100338.81;5008970;28;20116;-86
2021/04/07 09:01:23;;;;;;;13.75;10.32;;;4.00;91.20;;;4.02;73.88;100330.00;5012923;28;20046;-85
2021/04/07 09:03:51;;;;;;;13.32;10.18;;;4.00;91.20;;;4.08;73.31;100329.41;5013189;28;20112;-86
2021/04/07 09:06:18;;;;;;;14.57;10.65;;;4.00;91.30;;;4.06;74.03;100326.03;5013698;28;20092;-86
2021/04/07 09:08:56;;;;;;;14.70;10.80;;;4.00;91.20;;;4.08;74.42;100331.28;5013247;28;20041;-86
2021/04/07 09:11:32;;;;;;;17.00;11.38;;;4.00;91.70;;;4.06;74.07;100349.44;5013563;28;20112;-86
2021/04/07 09:14:04;;;;;;;16.15;11.82;;;4.00;91.70;;;4.13;74.17;100350.50;5014153;28;20042;-86
2021/04/07 09:16:39;;;;;;;16.88;12.15;;;4.10;91.70;;;4.07;74.47;100349.28;5013946;28;20045;-86
2021/04/07 09:19:21;;;;;;;16.98;11.23;;;4.10;91.80;;;4.16;74.67;100347.53;5013772;28;20522;-86
2021/04/07 09:22:00;;;;;;;16.23;12.10;;;4.10;91.70;;;4.22;74.44;100344.25;5013733;28;20053;-85
2021/04/07 09:24:35;;;;;;;18.35;12.02;;;4.10;92.10;;;4.21;74.63;100345.25;5013570;28;20041;-85
2021/04/07 09:27:04;;;;;;;18.27;12.73;;;4.10;92.20;;;4.24;74.63;100344.94;4996100;28;20470;-86
2021/04/07 09:29:31;;;;;;;20.35;12.98;;;4.10;92.10;;;4.28;74.27;100353.56;5009748;28;20038;-86
2021/04/07 09:31:58;;;;;;;17.40;13.13;;;4.20;92.20;;;4.33;74.19;100353.16;5003740;28;21174;-86
2021/04/07 09:34:26;;;;;;;19.48;13.60;;;4.20;92.50;;;4.36;74.31;100358.22;4992433;28;20100;-86
2021/04/07 09:36:55;;;;;;;18.48;13.40;;;4.20;92.60;;;4.36;74.24;100356.41;5007036;28;20053;-86
2021/04/07 09:39:24;;;;;;;25.25;14.13;;;4.20;92.60;;;4.39;74.34;100368.72;5009994;28;20038;-86
2021/04/07 09:41:52;;;;;;;19.35;12.95;;;4.20;92.60;;;4.39;74.64;100366.88;5011936;28;20052;-85
2021/04/07 09:44:20;;;;;;;17.63;12.65;;;4.20;92.70;;;4.45;74.36;100365.41;5001584;28;20058;-86
2021/04/07 09:46:51;;;;;;;18.45;13.55;;;4.30;92.90;;;4.37;74.74;100366.16;5008099;28;20046;-86
2021/04/07 09:49:18;;;;;;;;;;;4.30;93.00;;;4.39;75.28;100368.72;5011114;28;21249;-86
2021/04/07 09:51:48;;;;;;;18.63;13.30;;;4.30;93.10;;;4.43;74.72;100375.50;5010237;28;19936;-86
2021/04/07 09:54:29;;;;;;;19.20;12.82;;;4.30;92.70;;;4.42;74.54;100373.81;4996424;28;20503;-86
2021/04/07 09:56:59;;;;;;;17.92;12.70;;;4.30;92.80;;;4.43;74.79;100376.34;5005172;28;20053;-86
2021/04/07 09:59:37;;;;;;;17.35;12.75;;;4.30;92.90;;;4.41;75.46;100383.72;4989659;28;20755;-86
2021/04/07 10:02:06;;;;;;;16.98;12.18;;;4.40;93.10;;;4.42;74.67;100385.44;5003613;28;20620;-86
2021/04/07 10:04:35;;;;;;;18.23;12.52;;;4.30;93.00;;;4.46;75.13;100378.75;5004968;28;20038;-86
2021/04/07 10:07:15;;;;;;;17.65;12.88;;;4.40;93.10;;;4.45;74.83;100386.97;5009118;28;20386;-86
2021/04/07 10:09:45;;;;;;;18.13;13.75;;;4.40;93.10;;;4.44;75.75;100383.44;5005424;28;20409;-87
2021/04/07 10:12:13;;;;;;;18.25;13.35;;;4.40;93.30;;;4.50;75.05;100392.78;5013165;28;20049;-86
2021/04/07 10:14:49;;;;;;;19.88;14.63;;;4.40;93.30;;;4.50;75.10;100393.63;4995041;28;20054;-86
2021/04/07 10:17:17;;;;;;;18.55;13.77;;;4.40;93.50;;;4.55;75.05;100390.50;4997116;28;20050;-86
2021/04/07 10:19:45;;;;;;;20.23;14.50;;;4.40;93.70;;;4.58;75.07;100392.88;4993409;28;20038;-85
2021/04/07 10:22:17;;;;;;;21.00;14.65;;;4.40;93.80;;;4.60;75.20;100387.34;4976108;28;20824;-86